createdAt,value
2019-02-15T00:01:13.265Z,-1.00
2019-02-15T00:03:41.454Z,-1.00
2019-02-15T00:06:09.592Z,-0.90
2019-02-15T00:08:37.766Z,-0.80
2019-02-15T00:11:07.053Z,-0.80
2019-02-15T00:13:35.235Z,-0.80
2019-02-15T00:16:03.421Z,-0.80
2019-02-15T00:18:39.748Z,-0.90
2019-02-15T00:21:28.902Z,-1.00
2019-02-15T00:23:57.117Z,-1.10
2019-02-15T00:26:25.572Z,-1.10
2019-02-15T00:28:53.780Z,-1.00
2019-02-15T00:31:22.702Z,-1.10
2019-02-15T00:33:51.213Z,-1.10
2019-02-15T00:36:19.422Z,-1.10
2019-02-15T00:38:47.596Z,-1.00
2019-02-15T00:41:16.056Z,-1.00
2019-02-15T00:43:44.257Z,-1.00
2019-02-15T00:46:23.742Z,-1.00
2019-02-15T00:48:52.335Z,-1.00
2019-02-15T00:51:38.026Z,-1.00
2019-02-15T00:54:12.901Z,-1.10
2019-02-15T00:57:01.212Z,-1.00
2019-02-15T00:59:48.532Z,-1.10
2019-02-15T01:02:34.046Z,-1.10
2019-02-15T01:05:12.675Z,-1.10
2019-02-15T01:07:51.508Z,-1.10
2019-02-15T01:10:26.194Z,-1.10
2019-02-15T01:12:58.803Z,-1.10
2019-02-15T01:15:27.221Z,-1.10
2019-02-15T01:17:55.423Z,-1.20
2019-02-15T01:20:23.595Z,-1.20
2019-02-15T01:22:51.792Z,-1.10
2019-02-15T01:25:19.945Z,-1.20
2019-02-15T01:27:53.358Z,-1.20
2019-02-15T01:30:40.715Z,-1.20
2019-02-15T01:33:23.308Z,-1.40
2019-02-15T01:36:05.603Z,-1.40
2019-02-15T01:38:47.305Z,-1.40
2019-02-15T01:41:29.566Z,-1.40
2019-02-15T01:44:08.941Z,-1.50
2019-02-15T01:46:47.346Z,-1.60
2019-02-15T01:49:15.511Z,-1.50
2019-02-15T01:51:44.861Z,-1.50
2019-02-15T01:54:13.090Z,-1.50
2019-02-15T01:56:41.245Z,-1.40
2019-02-15T01:59:09.486Z,-1.40
2019-02-15T02:01:37.630Z,-1.50
2019-02-15T02:04:06.212Z,-1.50
2019-02-15T02:06:34.660Z,-1.60
2019-02-15T02:09:03.335Z,-1.60
2019-02-15T02:11:31.536Z,-1.60
2019-02-15T02:13:59.708Z,-1.60
2019-02-15T02:16:27.868Z,-1.60
2019-02-15T02:18:56.046Z,-1.70
2019-02-15T02:21:24.210Z,-1.70
2019-02-15T02:23:52.395Z,-1.70
2019-02-15T02:26:20.877Z,-1.70
2019-02-15T02:28:50.078Z,-1.70
2019-02-15T02:31:18.641Z,-1.70
2019-02-15T02:33:47.197Z,-1.60
2019-02-15T02:36:15.731Z,-1.60
2019-02-15T02:38:44.275Z,-1.70
2019-02-15T02:41:12.477Z,-1.70
2019-02-15T02:43:40.603Z,-1.70
2019-02-15T02:46:08.709Z,-1.70
2019-02-15T02:48:36.883Z,-1.80
2019-02-15T02:51:07.392Z,-1.70
2019-02-15T02:53:35.586Z,-1.70
2019-02-15T02:56:05.229Z,-1.70
2019-02-15T02:58:34.399Z,-1.70
2019-02-15T03:01:02.578Z,-1.70
2019-02-15T03:03:30.744Z,-1.70
2019-02-15T03:05:58.932Z,-1.70
2019-02-15T03:08:27.083Z,-1.80
2019-02-15T03:10:55.277Z,-1.90
2019-02-15T03:13:24.454Z,-2.00
2019-02-15T03:15:52.637Z,-1.90
2019-02-15T03:18:20.803Z,-1.90
2019-02-15T03:20:49.017Z,-2.00
2019-02-15T03:23:17.144Z,-1.90
2019-02-15T03:25:45.953Z,-2.00
2019-02-15T03:28:14.477Z,-2.10
2019-02-15T03:30:42.688Z,-2.20
2019-02-15T03:33:10.913Z,-2.30
2019-02-15T03:35:39.266Z,-2.40
2019-02-15T03:38:12.659Z,-2.40
2019-02-15T03:40:43.397Z,-2.40
2019-02-15T03:43:11.550Z,-2.40
2019-02-15T03:45:39.688Z,-2.30
2019-02-15T03:48:07.896Z,-2.30
2019-02-15T03:50:36.111Z,-2.30
2019-02-15T03:53:04.235Z,-2.40
2019-02-15T03:55:32.411Z,-2.40
2019-02-15T03:58:00.589Z,-2.40
2019-02-15T04:00:29.299Z,-2.40
2019-02-15T04:02:57.823Z,-2.40
2019-02-15T04:05:27.059Z,-2.30
2019-02-15T04:07:55.545Z,-2.30
2019-02-15T04:10:23.714Z,-2.30
2019-02-15T04:12:52.182Z,-2.30
2019-02-15T04:15:44.749Z,-2.20
2019-02-15T04:18:12.905Z,-2.30
2019-02-15T04:20:41.317Z,-2.40
2019-02-15T04:23:09.855Z,-2.30
2019-02-15T04:25:38.035Z,-2.30
2019-02-15T04:28:06.612Z,-2.20
2019-02-15T04:30:35.202Z,-2.20
2019-02-15T04:33:03.390Z,-2.20
2019-02-15T04:35:31.957Z,-2.20
2019-02-15T04:38:00.166Z,-2.10
2019-02-15T04:40:28.316Z,-2.10
2019-02-15T04:42:57.781Z,-2.10
2019-02-15T04:45:25.983Z,-2.10
2019-02-15T04:47:54.136Z,-2.20
2019-02-15T04:50:22.331Z,-2.20
2019-02-15T04:52:50.551Z,-2.30
2019-02-15T04:55:19.604Z,-2.40
2019-02-15T04:57:48.197Z,-2.40
2019-02-15T05:00:16.745Z,-2.40
2019-02-15T05:02:45.263Z,-2.50
2019-02-15T05:05:13.418Z,-2.50
2019-02-15T05:07:41.610Z,-2.50
2019-02-15T05:10:09.763Z,-2.60
2019-02-15T05:12:38.976Z,-2.60
2019-02-15T05:15:07.509Z,-2.60
2019-02-15T05:17:35.737Z,-2.50
2019-02-15T05:20:04.988Z,-2.50
2019-02-15T05:22:33.250Z,-2.40
2019-02-15T05:25:01.520Z,-2.40
2019-02-15T05:27:29.639Z,-2.40
2019-02-15T05:30:00.460Z,-2.40
2019-02-15T05:32:28.657Z,-2.40
2019-02-15T05:34:57.866Z,-2.50
2019-02-15T05:37:26.037Z,-2.50
2019-02-15T05:39:54.597Z,-2.50
2019-02-15T05:42:22.774Z,-2.50
2019-02-15T05:44:51.967Z,-2.60
2019-02-15T05:47:20.740Z,-2.50
2019-02-15T05:49:48.947Z,-2.60
2019-02-15T05:52:18.135Z,-2.60
2019-02-15T05:54:46.313Z,-2.60
2019-02-15T05:57:14.503Z,-2.60
2019-02-15T05:59:42.646Z,-2.60
2019-02-15T06:02:11.246Z,-2.60
2019-02-15T06:04:39.809Z,-2.60
2019-02-15T06:07:07.994Z,-2.60
2019-02-15T06:09:36.183Z,-2.60
2019-02-15T06:12:04.727Z,-2.60
2019-02-15T06:14:33.326Z,-2.60
2019-02-15T06:17:01.931Z,-2.70
2019-02-15T06:19:31.769Z,-2.70
2019-02-15T06:21:59.906Z,-2.70
2019-02-15T06:24:28.073Z,-2.70
2019-02-15T06:26:56.251Z,-2.60
2019-02-15T06:29:24.427Z,-2.70
2019-02-15T06:31:52.584Z,-2.70
2019-02-15T06:34:22.428Z,-2.60
2019-02-15T06:36:51.498Z,-2.70
2019-02-15T06:39:24.157Z,-2.70
2019-02-15T06:41:52.351Z,-2.70
2019-02-15T06:44:21.796Z,-2.70
2019-02-15T06:46:49.932Z,-2.70
2019-02-15T06:49:19.130Z,-2.80
2019-02-15T06:51:47.311Z,-2.80
2019-02-15T06:54:20.070Z,-2.80
2019-02-15T06:56:48.255Z,-2.80
2019-02-15T06:59:30.768Z,-2.80
2019-02-15T07:02:18.150Z,-2.80
2019-02-15T07:05:04.274Z,-2.70
2019-02-15T07:07:33.786Z,-2.60
2019-02-15T07:10:02.999Z,-2.50
2019-02-15T07:12:32.183Z,-2.30
2019-02-15T07:15:00.348Z,-2.10
2019-02-15T07:17:31.142Z,-1.70
2019-02-15T07:20:00.015Z,-1.30
2019-02-15T07:22:29.663Z,-0.80
2019-02-15T07:24:58.221Z,-0.10
2019-02-15T07:27:30.424Z,0.50
2019-02-15T07:29:58.858Z,0.90
2019-02-15T07:32:27.311Z,1.50
2019-02-15T07:34:55.492Z,2.10
2019-02-15T07:37:23.659Z,2.50
2019-02-15T07:39:52.714Z,2.90
2019-02-15T07:42:21.294Z,3.30
2019-02-15T07:44:49.358Z,3.60
2019-02-15T07:47:17.558Z,3.90
2019-02-15T07:49:45.725Z,4.20
2019-02-15T07:52:13.913Z,4.50
2019-02-15T07:54:42.026Z,4.80
2019-02-15T07:57:10.253Z,5.00
2019-02-15T07:59:38.424Z,5.20
2019-02-15T08:02:06.623Z,5.40
2019-02-15T08:04:35.449Z,5.70
2019-02-15T08:07:03.662Z,6.00
2019-02-15T08:09:32.367Z,6.30
2019-02-15T08:12:00.515Z,6.40
2019-02-15T08:14:28.780Z,6.30
2019-02-15T08:16:57.655Z,6.20
2019-02-15T08:19:25.856Z,6.70
2019-02-15T08:21:54.928Z,7.10
2019-02-15T08:24:23.123Z,7.40
2019-02-15T08:26:51.637Z,7.70
2019-02-15T08:29:20.019Z,8.10
2019-02-15T08:31:49.221Z,8.30
2019-02-15T08:34:19.519Z,8.30
2019-02-15T08:36:47.687Z,8.60
2019-02-15T08:39:20.084Z,8.80
2019-02-15T08:42:00.656Z,9.00
2019-02-15T08:44:16.396Z,9.30
2019-02-15T08:46:44.567Z,9.30
2019-02-15T08:49:12.802Z,9.50
2019-02-15T08:51:41.208Z,9.30
2019-02-15T08:54:09.422Z,9.40
2019-02-15T08:56:37.879Z,9.60
2019-02-15T08:59:07.100Z,9.50
2019-02-15T09:01:35.262Z,9.70
2019-02-15T09:04:04.459Z,9.90
2019-02-15T09:06:33.453Z,10.00
2019-02-15T09:09:01.714Z,9.60
2019-02-15T09:11:29.952Z,9.00
2019-02-15T09:13:58.462Z,9.60
2019-02-15T09:16:26.649Z,10.20
2019-02-15T09:18:54.831Z,10.40
2019-02-15T09:21:22.997Z,10.20
2019-02-15T09:23:51.459Z,10.60
2019-02-15T09:26:20.824Z,10.60
2019-02-15T09:28:52.977Z,11.10
2019-02-15T09:31:22.148Z,11.40
2019-02-15T09:33:50.338Z,11.70
2019-02-15T09:36:20.039Z,12.00
2019-02-15T09:38:48.212Z,12.30
2019-02-15T09:41:16.373Z,12.60
2019-02-15T09:43:44.564Z,12.50
2019-02-15T09:46:19.453Z,12.20
2019-02-15T09:48:41.630Z,11.00
2019-02-15T09:51:10.049Z,10.40
2019-02-15T09:53:38.320Z,10.80
2019-02-15T09:56:06.828Z,11.40
2019-02-15T09:58:35.029Z,11.00
2019-02-15T10:01:03.495Z,11.10
2019-02-15T10:03:32.691Z,10.60
2019-02-15T10:06:01.160Z,11.60
2019-02-15T10:08:29.351Z,12.50
2019-02-15T10:10:58.450Z,11.80
2019-02-15T10:13:26.617Z,12.70
2019-02-15T10:15:55.191Z,13.20
2019-02-15T10:18:23.375Z,13.70
2019-02-15T10:20:52.578Z,14.30
2019-02-15T10:23:20.755Z,15.00
2019-02-15T10:25:48.930Z,15.60
2019-02-15T10:28:17.103Z,15.70
2019-02-15T10:30:45.642Z,16.10
2019-02-15T10:33:14.098Z,16.30
2019-02-15T10:35:43.258Z,15.50
2019-02-15T10:38:11.693Z,15.90
2019-02-15T10:40:39.912Z,15.70
2019-02-15T10:43:09.093Z,15.30
2019-02-15T10:45:56.684Z,15.30
2019-02-15T10:48:24.923Z,15.90
2019-02-15T10:50:53.074Z,16.80
2019-02-15T10:53:21.235Z,16.60
2019-02-15T10:55:49.418Z,16.80
2019-02-15T10:58:17.595Z,17.40
2019-02-15T11:00:45.774Z,17.30
2019-02-15T11:03:19.675Z,17.60
2019-02-15T11:05:48.031Z,17.80
2019-02-15T11:08:16.667Z,17.90
2019-02-15T11:10:45.201Z,17.40
2019-02-15T11:13:13.394Z,17.20
2019-02-15T11:15:41.567Z,17.20
2019-02-15T11:18:09.735Z,17.60
2019-02-15T11:20:37.930Z,17.30
2019-02-15T11:23:06.097Z,17.80
2019-02-15T11:25:34.254Z,17.90
2019-02-15T11:28:02.429Z,17.50
2019-02-15T11:30:30.912Z,17.00
2019-02-15T11:33:00.031Z,16.40
2019-02-15T11:35:28.484Z,16.60
2019-02-15T11:37:57.068Z,17.50
2019-02-15T11:40:25.567Z,17.90
2019-02-15T11:42:53.724Z,18.10
2019-02-15T11:45:22.595Z,18.10
2019-02-15T11:47:50.811Z,18.20
2019-02-15T11:50:18.966Z,18.10
2019-02-15T11:52:47.153Z,18.20
2019-02-15T11:55:15.605Z,18.50
2019-02-15T11:57:43.802Z,18.80
2019-02-15T12:00:14.454Z,18.50
2019-02-15T12:02:41.432Z,17.90
2019-02-15T12:05:10.555Z,18.00
2019-02-15T12:07:39.158Z,17.80
2019-02-15T12:10:07.722Z,17.60
2019-02-15T12:12:35.915Z,18.10
2019-02-15T12:15:04.170Z,18.60
2019-02-15T12:17:32.947Z,19.10
2019-02-15T12:20:01.134Z,19.20
2019-02-15T12:22:29.322Z,19.60
2019-02-15T12:24:57.861Z,20.30
2019-02-15T12:27:26.078Z,20.60
2019-02-15T12:29:55.266Z,20.70
2019-02-15T12:32:26.529Z,20.60
2019-02-15T12:34:54.708Z,20.30
2019-02-15T12:37:24.120Z,20.90
2019-02-15T12:39:52.276Z,20.80
2019-02-15T12:42:21.454Z,21.50
2019-02-15T12:44:50.964Z,22.20
2019-02-15T12:47:19.200Z,22.40
2019-02-15T12:49:47.306Z,22.30
2019-02-15T12:52:15.478Z,22.30
2019-02-15T12:54:43.653Z,21.80
2019-02-15T12:57:12.206Z,21.70
2019-02-15T12:59:40.761Z,21.90
2019-02-15T13:02:08.904Z,22.10
2019-02-15T13:04:37.077Z,22.20
2019-02-15T13:07:05.241Z,22.60
2019-02-15T13:09:33.433Z,22.80
2019-02-15T13:12:02.582Z,23.10
2019-02-15T13:14:31.122Z,23.00
2019-02-15T13:16:59.557Z,23.50
2019-02-15T13:19:27.774Z,23.80
2019-02-15T13:21:56.198Z,24.30
2019-02-15T13:24:24.398Z,24.40
2019-02-15T13:26:52.572Z,24.40
2019-02-15T13:29:20.755Z,24.80
2019-02-15T13:31:49.202Z,25.40
2019-02-15T13:34:17.414Z,25.70
2019-02-15T13:36:45.577Z,25.50
2019-02-15T13:39:13.773Z,25.50
2019-02-15T13:41:42.193Z,26.00
2019-02-15T13:44:10.402Z,26.20
2019-02-15T13:46:38.617Z,25.90
2019-02-15T13:49:06.775Z,26.00
2019-02-15T13:51:34.927Z,26.40
2019-02-15T13:54:03.110Z,26.40
2019-02-15T13:56:31.591Z,25.70
2019-02-15T13:59:00.777Z,25.50
2019-02-15T14:01:30.267Z,25.90
2019-02-15T14:04:01.003Z,26.00
2019-02-15T14:06:29.970Z,25.90
2019-02-15T14:09:05.438Z,26.00
2019-02-15T14:11:34.159Z,26.40
2019-02-15T14:14:02.321Z,25.40
2019-02-15T14:16:30.795Z,25.50
2019-02-15T14:18:58.971Z,25.10
2019-02-15T14:21:27.429Z,25.70
2019-02-15T14:23:56.660Z,26.40
2019-02-15T14:26:24.827Z,25.80
2019-02-15T14:28:52.974Z,25.40
2019-02-15T14:31:22.261Z,25.80
2019-02-15T14:33:50.675Z,25.50
2019-02-15T14:36:18.844Z,25.60
2019-02-15T14:38:47.013Z,25.90
2019-02-15T14:41:15.193Z,25.70
2019-02-15T14:43:43.364Z,25.90
2019-02-15T14:46:11.537Z,25.80
2019-02-15T14:48:39.758Z,26.30
2019-02-15T14:51:08.492Z,26.70
2019-02-15T14:53:36.947Z,26.80
2019-02-15T14:56:05.085Z,26.00
2019-02-15T14:58:33.227Z,25.20
2019-02-15T15:01:01.778Z,24.70
2019-02-15T15:03:30.009Z,24.80
2019-02-15T15:05:58.164Z,25.20
2019-02-15T15:08:26.326Z,24.90
2019-02-15T15:10:54.892Z,24.60
2019-02-15T15:13:23.449Z,24.50
2019-02-15T15:15:51.662Z,24.10
2019-02-15T15:18:19.836Z,23.00
2019-02-15T15:20:48.313Z,22.10
2019-02-15T15:23:16.502Z,20.70
2019-02-15T15:25:44.675Z,19.20
2019-02-15T15:28:12.846Z,18.20
2019-02-15T15:30:41.285Z,17.40
2019-02-15T15:33:11.360Z,16.60
2019-02-15T15:35:39.524Z,16.00
2019-02-15T15:38:08.111Z,15.60
2019-02-15T15:40:36.276Z,14.90
2019-02-15T15:43:04.434Z,14.20
2019-02-15T15:45:32.623Z,14.00
2019-02-15T15:48:00.785Z,13.90
2019-02-15T15:50:29.204Z,13.80
2019-02-15T15:52:58.003Z,13.60
2019-02-15T15:55:26.242Z,13.20
2019-02-15T15:57:54.698Z,12.90
2019-02-15T16:00:23.898Z,12.70
2019-02-15T16:02:52.086Z,12.40
2019-02-15T16:05:20.301Z,12.30
2019-02-15T16:07:48.512Z,12.10
2019-02-15T16:10:16.608Z,11.80
2019-02-15T16:12:45.514Z,11.30
2019-02-15T16:15:13.674Z,10.90
2019-02-15T16:17:41.855Z,10.70
2019-02-15T16:20:10.159Z,10.50
2019-02-15T16:22:38.387Z,10.10
2019-02-15T16:25:07.646Z,9.90
2019-02-15T16:27:35.930Z,9.80
2019-02-15T16:30:04.370Z,9.50
2019-02-15T16:32:32.522Z,9.10
2019-02-15T16:35:00.801Z,9.00
2019-02-15T16:37:29.881Z,8.60
2019-02-15T16:39:59.141Z,8.50
2019-02-15T16:42:27.378Z,8.20
2019-02-15T16:44:55.579Z,8.00
2019-02-15T16:47:23.983Z,7.90
2019-02-15T16:49:52.198Z,7.90
2019-02-15T16:52:20.765Z,7.80
2019-02-15T16:54:49.241Z,7.60
2019-02-15T16:57:17.509Z,7.50
2019-02-15T16:59:45.653Z,7.40
2019-02-15T17:02:13.765Z,7.10
2019-02-15T17:04:42.362Z,6.90
2019-02-15T17:07:10.536Z,6.80
2019-02-15T17:09:38.709Z,6.80
2019-02-15T17:12:06.866Z,6.60
2019-02-15T17:14:35.054Z,6.50
2019-02-15T17:17:03.822Z,6.40
2019-02-15T17:19:32.349Z,6.40
2019-02-15T17:22:00.481Z,6.30
2019-02-15T17:24:28.689Z,6.10
2019-02-15T17:26:56.839Z,5.90
2019-02-15T17:29:25.056Z,5.80
2019-02-15T17:31:53.959Z,5.70
2019-02-15T17:34:21.679Z,5.60
2019-02-15T17:36:49.837Z,5.40
2019-02-15T17:39:18.026Z,5.40
2019-02-15T17:41:46.184Z,5.30
2019-02-15T17:44:14.970Z,5.20
2019-02-15T17:46:43.200Z,5.10
2019-02-15T17:49:11.409Z,5.00
2019-02-15T17:51:39.649Z,4.90
2019-02-15T17:54:07.765Z,4.80
2019-02-15T17:56:35.966Z,4.70
2019-02-15T17:59:05.194Z,4.60
2019-02-15T18:01:33.801Z,4.50
2019-02-15T18:04:02.218Z,4.40
2019-02-15T18:06:31.415Z,4.30
2019-02-15T18:08:59.617Z,4.20
2019-02-15T18:11:27.893Z,4.00
2019-02-15T18:13:56.117Z,3.90
2019-02-15T18:16:24.329Z,3.90
2019-02-15T18:18:52.656Z,3.80
2019-02-15T18:21:21.159Z,3.80
2019-02-15T18:23:49.446Z,3.70
2019-02-15T18:26:18.086Z,3.60
2019-02-15T18:28:46.367Z,3.50
2019-02-15T18:31:16.413Z,3.40
2019-02-15T18:33:43.716Z,3.30
2019-02-15T18:36:12.594Z,3.30
2019-02-15T18:38:40.909Z,3.40
2019-02-15T18:41:13.556Z,3.30
2019-02-15T18:43:40.004Z,3.20
2019-02-15T18:46:09.261Z,3.10
2019-02-15T18:48:37.411Z,3.10
2019-02-15T18:51:05.589Z,3.00
2019-02-15T18:53:34.396Z,2.90
2019-02-15T18:56:03.578Z,2.80
2019-02-15T18:58:31.759Z,2.80
2019-02-15T19:00:59.917Z,2.70
2019-02-15T19:03:28.441Z,2.70
2019-02-15T19:05:56.689Z,2.70
2019-02-15T19:08:26.258Z,2.70
2019-02-15T19:10:54.451Z,2.70
2019-02-15T19:13:23.664Z,2.60
2019-02-15T19:15:52.212Z,2.50
2019-02-15T19:18:20.783Z,2.60
2019-02-15T19:20:49.357Z,2.50
2019-02-15T19:23:18.616Z,2.40
2019-02-15T19:25:47.445Z,2.30
2019-02-15T19:28:15.584Z,2.20
2019-02-15T19:30:43.733Z,2.20
2019-02-15T19:33:11.938Z,2.20
2019-02-15T19:35:40.075Z,2.20
2019-02-15T19:38:08.641Z,2.10
2019-02-15T19:40:36.839Z,2.10
2019-02-15T19:43:05.347Z,2.10
2019-02-15T19:45:33.903Z,2.00
2019-02-15T19:48:03.550Z,2.00
2019-02-15T19:50:32.474Z,2.00
2019-02-15T19:53:00.662Z,1.90
2019-02-15T19:55:28.868Z,2.00
2019-02-15T19:57:57.036Z,2.00
2019-02-15T20:00:25.475Z,2.00
2019-02-15T20:02:53.697Z,1.90
2019-02-15T20:05:21.852Z,1.80
2019-02-15T20:07:50.432Z,1.80
2019-02-15T20:10:19.837Z,1.70
2019-02-15T20:12:49.026Z,1.70
2019-02-15T20:15:17.550Z,1.60
2019-02-15T20:17:45.683Z,1.60
2019-02-15T20:20:14.944Z,1.70
2019-02-15T20:22:43.177Z,1.60
2019-02-15T20:25:11.612Z,1.40
2019-02-15T20:27:40.073Z,1.30
2019-02-15T20:30:13.836Z,1.20
2019-02-15T20:32:43.630Z,1.20
2019-02-15T20:35:13.443Z,1.10
2019-02-15T20:37:40.179Z,1.10
2019-02-15T20:40:09.477Z,1.00
2019-02-15T20:42:40.511Z,1.00
2019-02-15T20:45:14.116Z,1.00
2019-02-15T20:47:42.521Z,1.00
2019-02-15T20:50:10.717Z,1.00
2019-02-15T20:52:38.865Z,1.00
2019-02-15T20:55:08.416Z,0.90
2019-02-15T20:57:36.829Z,0.90
2019-02-15T21:00:06.746Z,0.80
2019-02-15T21:02:35.498Z,0.80
2019-02-15T21:05:15.576Z,0.80
2019-02-15T21:07:43.769Z,0.80
2019-02-15T21:10:12.230Z,0.80
2019-02-15T21:12:40.527Z,0.80
2019-02-15T21:15:09.338Z,0.70
2019-02-15T21:17:37.807Z,0.60
2019-02-15T21:20:08.045Z,0.70
2019-02-15T21:22:35.069Z,0.70
2019-02-15T21:25:03.211Z,0.70
2019-02-15T21:27:31.802Z,0.60
2019-02-15T21:30:00.028Z,0.60
2019-02-15T21:32:28.461Z,0.60
2019-02-15T21:34:56.647Z,0.60
2019-02-15T21:37:27.124Z,0.50
2019-02-15T21:39:54.309Z,0.40
2019-02-15T21:42:22.530Z,0.30
2019-02-15T21:44:51.723Z,0.40
2019-02-15T21:47:19.862Z,0.40
2019-02-15T21:49:48.095Z,0.40
2019-02-15T21:52:16.190Z,0.40
2019-02-15T21:54:44.392Z,0.30
2019-02-15T21:57:12.591Z,0.30
2019-02-15T21:59:40.990Z,0.30
2019-02-15T22:02:09.240Z,0.30
2019-02-15T22:04:37.361Z,0.20
2019-02-15T22:07:05.534Z,0.10
2019-02-15T22:09:34.085Z,0.20
2019-02-15T22:12:02.314Z,0.30
2019-02-15T22:14:30.501Z,0.30
2019-02-15T22:17:18.272Z,0.20
2019-02-15T22:19:46.487Z,0.10
2019-02-15T22:22:14.661Z,0.10
2019-02-15T22:24:42.829Z,0.10
2019-02-15T22:27:11.262Z,0.00
2019-02-15T22:29:39.705Z,0.00
2019-02-15T22:32:08.262Z,-0.10
2019-02-15T22:34:36.716Z,-0.20
2019-02-15T22:37:05.314Z,-0.10
2019-02-15T22:39:33.504Z,-0.10
2019-02-15T22:42:02.482Z,0.00
2019-02-15T22:44:30.670Z,-0.10
2019-02-15T22:46:58.857Z,-0.10
2019-02-15T22:49:27.026Z,-0.10
2019-02-15T22:51:55.199Z,-0.20
2019-02-15T22:54:23.734Z,-0.30
2019-02-15T22:56:52.863Z,-0.20
2019-02-15T22:59:40.423Z,-0.10
2019-02-15T23:02:08.584Z,-0.10
2019-02-15T23:04:36.754Z,-0.20
2019-02-15T23:07:05.068Z,-0.30
2019-02-15T23:09:33.209Z,-0.40
2019-02-15T23:12:01.358Z,-0.40
2019-02-15T23:14:29.550Z,-0.50
2019-02-15T23:16:57.696Z,-0.40
2019-02-15T23:19:25.886Z,-0.40
2019-02-15T23:21:55.123Z,-0.40
2019-02-15T23:24:23.275Z,-0.40
2019-02-15T23:26:52.445Z,-0.30
2019-02-15T23:29:20.622Z,-0.20
2019-02-15T23:31:48.836Z,-0.30
2019-02-15T23:34:16.988Z,-0.40
2019-02-15T23:36:45.168Z,-0.50
2019-02-15T23:39:13.327Z,-0.50
2019-02-15T23:41:42.529Z,-0.60
2019-02-15T23:44:10.704Z,-0.60
2019-02-15T23:46:38.861Z,-0.60
2019-02-15T23:49:07.134Z,-0.50
2019-02-15T23:51:54.724Z,-0.60
2019-02-15T23:54:23.893Z,-0.60
2019-02-15T23:56:52.081Z,-0.60
2019-02-15T23:59:20.545Z,-0.60
